Time;durP1;ratioP1;P1;durP2;ratioP2;P2;SDS_P1;SDS_P2;PMS_P1;PMS_P2;Temp;Humidity;BMP_temperature;BMP_pressure;BME280_temperature;BME280_humidity;BME280_pressure;Samples;Min_cycle;Max_cycle;Signal;HPM_P1;HPM_P2
2020/12/19 09:07:30;;;;;;;14.27;8.77;;;3.80;97.80;;;;;;6041934;23;20036;-89
2020/12/19 09:54:20;;;;;;;14.05;9.45;;;4.30;98.40;;;;;;5663776;23;20056;-88
2020/12/19 09:56:57;;;;;;;14.63;9.75;;;4.40;98.50;;;;;;5038763;28;20133;-92
2020/12/19 09:59:25;;;;;;;15.73;10.20;;;4.40;98.60;;;;;;5020076;28;20075;-91
2020/12/19 10:01:51;;;;;;;16.35;9.88;;;4.50;98.40;;;;;;5039143;28;20451;-91
2020/12/19 10:04:18;;;;;;;13.68;9.70;;;4.60;98.30;;;;;;5019766;28;20137;-91
2020/12/19 10:06:45;;;;;;;12.63;9.43;;;4.80;98.20;;;;;;5043478;28;20056;-91
2020/12/19 10:09:11;;;;;;;13.48;9.32;;;4.70;98.20;;;;;;5024107;28;20506;-91
2020/12/19 10:11:38;;;;;;;13.10;9.60;;;4.90;98.10;;;;;;5038205;28;20202;-91
2020/12/19 10:14:04;;;;;;;13.60;9.45;;;4.90;98.10;;;;;;5036917;28;20144;-91
2020/12/19 10:16:32;;;;;;;14.23;10.32;;;5.00;98.00;;;;;;5036854;28;20136;-90
2020/12/19 10:18:59;;;;;;;16.23;9.32;;;5.10;97.90;;;;;;5018765;28;20115;-91
2020/12/19 10:21:26;;;;;;;12.82;9.02;;;5.20;97.80;;;;;;5018274;28;20128;-91
2020/12/19 10:23:52;;;;;;;15.73;9.43;;;5.30;97.80;;;;;;5035698;28;20143;-92
2020/12/19 10:26:21;;;;;;;13.88;9.00;;;5.30;97.60;;;;;;5018870;28;20088;-91
2020/12/19 10:28:48;;;;;;;13.88;9.70;;;5.50;97.60;;;;;;5018610;28;20128;-92
2020/12/19 10:31:14;;;;;;;13.52;9.50;;;5.40;97.50;;;;;;5035487;28;20135;-91
2020/12/19 10:33:42;;;;;;;14.27;9.60;;;5.70;97.40;;;;;;5035552;28;20463;-92
2020/12/19 10:36:09;;;;;;;12.77;9.55;;;5.70;97.10;;;;;;5034946;28;20057;-89
2020/12/19 10:38:36;;;;;;;13.80;9.18;;;5.80;97.20;;;;;;5001752;28;20402;-91
2020/12/19 10:41:02;;;;;;;14.75;9.70;;;6.00;96.90;;;;;;5035150;28;20084;-89
2020/12/19 10:43:29;;;;;;;14.70;9.65;;;6.00;97.00;;;;;;5034767;28;20080;-88
2020/12/19 10:45:56;;;;;;;15.15;9.38;;;6.10;97.00;;;;;;5035381;28;20447;-89
2020/12/19 10:48:23;;;;;;;12.00;9.23;;;6.10;96.90;;;;;;5034979;28;20054;-89
2020/12/19 10:50:50;;;;;;;13.38;9.63;;;6.20;96.90;;;;;;5034647;28;20499;-89
2020/12/19 10:53:17;;;;;;;14.15;10.02;;;6.30;97.00;;;;;;5034837;28;20083;-88
2020/12/19 10:55:43;;;;;;;16.25;9.90;;;6.30;97.10;;;;;;5034594;28;20149;-89
2020/12/19 10:58:10;;;;;;;14.80;10.43;;;6.40;96.90;;;;;;5035036;28;20077;-91
2020/12/19 11:00:37;;;;;;;14.40;9.68;;;6.50;96.80;;;;;;5034970;28;20129;-90
2020/12/19 11:03:04;;;;;;;15.00;10.02;;;6.50;96.70;;;;;;5034960;28;20111;-89
2020/12/19 11:05:30;;;;;;;14.77;9.70;;;6.70;96.40;;;;;;5034467;28;20049;-91
2020/12/19 11:07:58;;;;;;;14.25;9.05;;;6.80;96.50;;;;;;5034931;28;20049;-90
2020/12/19 11:10:24;;;;;;;13.95;9.65;;;6.70;96.90;;;;;;5034781;28;20562;-89
2020/12/19 11:12:51;;;;;;;14.57;9.45;;;6.80;96.40;;;;;;5000542;28;20499;-89
2020/12/19 11:15:18;;;;;;;14.30;9.82;;;6.90;96.10;;;;;;5034272;28;20476;-89
2020/12/19 11:17:44;;;;;;;13.73;9.20;;;6.90;96.20;;;;;;5034153;28;20470;-89
2020/12/19 11:20:11;;;;;;;14.25;10.35;;;7.10;96.10;;;;;;5034452;28;20544;-89
2020/12/19 11:22:38;;;;;;;13.18;9.43;;;7.10;96.20;;;;;;5034153;28;20053;-88
2020/12/19 11:25:05;;;;;;;15.75;9.98;;;7.00;96.00;;;;;;5034196;28;20140;-88
2020/12/19 11:27:32;;;;;;;16.20;10.45;;;7.10;96.00;;;;;;5033511;28;20081;-89
2020/12/19 11:29:58;;;;;;;13.85;10.13;;;7.30;95.90;;;;;;5033359;28;20539;-90
2020/12/19 11:32:25;;;;;;;15.98;10.98;;;7.20;96.00;;;;;;5033061;28;20160;-89
2020/12/19 11:34:52;;;;;;;23.00;14.13;;;7.40;95.70;;;;;;5034601;28;20057;-90
2020/12/19 11:37:20;;;;;;;22.17;13.27;;;7.50;95.50;;;;;;5034370;28;20157;-88
2020/12/19 11:39:46;;;;;;;18.67;12.20;;;7.60;95.70;;;;;;5033626;28;20127;-88
2020/12/19 11:42:14;;;;;;;17.00;11.07;;;7.60;95.20;;;;;;5033387;28;20140;-89
2020/12/19 11:44:40;;;;;;;16.27;11.20;;;7.70;95.20;;;;;;5014180;28;20132;-88
2020/12/19 11:47:07;;;;;;;15.93;11.15;;;8.00;94.80;;;;;;5014226;28;20197;-89
2020/12/19 11:49:34;;;;;;;15.77;10.60;;;7.90;94.70;;;;;;5013924;28;20073;-87
2020/12/19 11:52:00;;;;;;;15.75;9.82;;;8.10;94.50;;;;;;5021083;28;20478;-89
2020/12/19 11:54:27;;;;;;;14.45;9.98;;;8.20;94.50;;;;;;5032410;28;20526;-89
2020/12/19 11:56:54;;;;;;;14.05;10.00;;;8.30;94.20;;;;;;5033482;28;20547;-88
2020/12/19 11:59:22;;;;;;;15.65;11.20;;;8.50;94.40;;;;;;5033769;28;20073;-89
2020/12/19 12:01:50;;;;;;;15.65;10.10;;;8.50;94.10;;;;;;5032314;28;20084;-90
2020/12/19 12:04:17;;;;;;;15.40;10.63;;;8.70;94.60;;;;;;5033488;28;20053;-87
2020/12/19 12:06:43;;;;;;;16.55;10.80;;;8.90;93.50;;;;;;5036197;28;20084;-86
2020/12/19 12:09:10;;;;;;;15.15;10.10;;;9.10;94.00;;;;;;5033645;28;20483;-86
2020/12/19 12:11:36;;;;;;;13.18;9.60;;;9.20;93.40;;;;;;5032555;28;20096;-86
2020/12/19 12:14:03;;;;;;;14.52;10.40;;;9.40;93.20;;;;;;5032671;28;20475;-87
2020/12/19 12:16:30;;;;;;;15.45;10.25;;;9.60;92.50;;;;;;5032848;28;20128;-88
2020/12/19 12:18:57;;;;;;;15.48;10.10;;;9.70;92.00;;;;;;5032487;28;20136;-88
2020/12/19 12:21:26;;;;;;;17.17;11.32;;;9.80;91.20;;;;;;5032305;28;20132;-88
2020/12/19 12:23:53;;;;;;;19.08;12.27;;;10.00;90.20;;;;;;5033523;28;20061;-91
2020/12/19 12:26:23;;;;;;;14.77;10.27;;;9.90;90.40;;;;;;5034360;28;20054;-91
2020/12/19 12:28:49;;;;;;;14.02;9.48;;;9.90;90.50;;;;;;5033271;28;20049;-90
2020/12/19 12:31:24;;;;;;;12.13;9.20;;;9.80;90.90;;;;;;5037535;28;20080;-90
2020/12/19 12:33:53;;;;;;;13.32;8.50;;;10.00;91.40;;;;;;5039267;28;20050;-90
2020/12/19 12:36:21;;;;;;;11.30;8.32;;;10.30;91.40;;;;;;5033521;28;20549;-89
2020/12/19 12:38:48;;;;;;;12.07;7.18;;;10.40;91.20;;;;;;5036173;28;20072;-89
2020/12/19 12:41:15;;;;;;;11.02;7.45;;;10.70;90.70;;;;;;5034055;28;20097;-92
2020/12/19 12:43:41;;;;;;;9.98;7.47;;;11.00;90.30;;;;;;5034448;28;20056;-90
2020/12/19 12:46:10;;;;;;;10.30;6.97;;;11.40;89.10;;;;;;5035610;28;20053;-89
2020/12/19 12:48:40;;;;;;;11.57;6.68;;;11.80;86.40;;;;;;5035455;28;20053;-89
2020/12/19 12:51:09;;;;;;;8.95;6.50;;;12.10;84.20;;;;;;5034830;28;20057;-91
2020/12/19 12:53:37;;;;;;;10.50;6.50;;;12.30;83.00;;;;;;5033564;28;20095;-91
2020/12/19 12:56:04;;;;;;;10.15;6.82;;;12.60;81.60;;;;;;5016986;28;20132;-90
2020/12/19 12:58:31;;;;;;;9.15;6.47;;;13.00;78.60;;;;;;5033973;28;20046;-91
2020/12/19 13:00:58;;;;;;;8.88;6.03;;;13.30;77.70;;;;;;5034081;28;20049;-91
2020/12/19 13:03:25;;;;;;;8.13;5.70;;;13.70;75.30;;;;;;5033741;28;20500;-90
2020/12/19 13:05:52;;;;;;;7.28;4.80;;;14.10;71.50;;;;;;5032880;28;20069;-90
2020/12/19 13:08:20;;;;;;;7.10;4.45;;;14.40;67.30;;;;;;5033755;28;20087;-90
2020/12/19 13:10:47;;;;;;;7.65;4.50;;;14.70;64.30;;;;;;5033510;28;20107;-91
2020/12/19 13:13:13;;;;;;;8.30;5.15;;;15.00;61.50;;;;;;5032253;28;20084;-90
2020/12/19 13:15:40;;;;;;;9.60;5.15;;;15.30;60.50;;;;;;5029102;28;20677;-89
2020/12/19 13:18:08;;;;;;;7.75;4.95;;;15.50;60.60;;;;;;5031870;28;20125;-90
2020/12/19 13:20:35;;;;;;;7.75;4.63;;;15.80;60.40;;;;;;5023025;28;20054;-90
2020/12/19 13:23:02;;;;;;;8.85;5.20;;;16.20;57.60;;;;;;5033309;28;20136;-89
2020/12/19 13:25:29;;;;;;;7.90;5.30;;;16.60;55.50;;;;;;5029812;28;20053;-89
2020/12/19 13:27:56;;;;;;;7.65;4.30;;;16.80;54.40;;;;;;5033130;28;20084;-90
2020/12/19 13:30:23;;;;;;;6.30;4.13;;;17.20;53.20;;;;;;5033460;28;20452;-91
2020/12/19 13:32:49;;;;;;;6.45;4.18;;;17.70;51.70;;;;;;5029804;28;20061;-91
2020/12/19 13:35:17;;;;;;;7.10;4.40;;;18.10;50.60;;;;;;5036344;28;20046;-89
2020/12/19 13:37:44;;;;;;;6.65;4.28;;;18.50;49.60;;;;;;5035920;28;20491;-90
2020/12/19 13:40:12;;;;;;;6.07;4.00;;;18.80;48.30;;;;;;5036624;28;20483;-90
2020/12/19 13:42:40;;;;;;;6.25;4.10;;;19.10;47.30;;;;;;5038238;28;20132;-90
2020/12/19 13:45:09;;;;;;;6.53;4.10;;;19.70;46.50;;;;;;5050216;28;20045;-92
2020/12/19 13:47:36;;;;;;;6.88;4.28;;;20.80;44.50;;;;;;5036563;28;20182;-89
2020/12/19 13:50:04;;;;;;;6.43;3.97;;;21.70;42.10;;;;;;5038537;28;20088;-92
2020/12/19 13:52:30;;;;;;;7.57;4.13;;;22.20;40.20;;;;;;5036675;28;20136;-90
2020/12/19 13:54:57;;;;;;;7.03;4.22;;;22.10;40.20;;;;;;5035723;28;20120;-91
2020/12/19 13:57:24;;;;;;;7.90;4.80;;;21.50;40.80;;;;;;5035665;28;20084;-93
2020/12/19 13:59:52;;;;;;;6.78;3.63;;;20.90;41.80;;;;;;5034899;28;20057;-88
2020/12/19 14:02:18;;;;;;;6.43;3.83;;;19.80;42.90;;;;;;5035648;28;20057;-88
2020/12/19 14:04:45;;;;;;;6.28;4.15;;;18.50;45.10;;;;;;5035738;28;20068;-88
2020/12/19 14:07:12;;;;;;;6.13;3.60;;;17.80;45.90;;;;;;5035905;28;20179;-89
2020/12/19 14:09:39;;;;;;;6.68;3.47;;;17.40;47.30;;;;;;5035699;28;20112;-88
2020/12/19 14:12:07;;;;;;;6.47;3.70;;;17.90;46.60;;;;;;5035309;28;20049;-88
2020/12/19 14:14:34;;;;;;;5.85;3.78;;;19.00;44.00;;;;;;5036175;28;20084;-89
2020/12/19 14:17:03;;;;;;;6.05;3.35;;;20.40;41.50;;;;;;5018628;28;20049;-88
2020/12/19 14:19:30;;;;;;;5.25;3.42;;;21.50;39.50;;;;;;5035431;28;20136;-89
2020/12/19 14:21:57;;;;;;;5.47;3.00;;;22.10;38.00;;;;;;5035638;28;20075;-89
2020/12/19 14:24:25;;;;;;;5.30;3.28;;;22.20;37.60;;;;;;5035613;28;20053;-89
2020/12/19 14:26:52;;;;;;;6.22;3.72;;;22.00;37.60;;;;;;5036534;28;20111;-88
2020/12/19 14:29:19;;;;;;;5.95;3.90;;;21.30;38.50;;;;;;5036888;28;20049;-89
2020/12/19 14:31:45;;;;;;;8.40;3.90;;;20.30;40.50;;;;;;5036689;28;20089;-89
2020/12/19 14:34:13;;;;;;;8.52;4.18;;;19.20;42.80;;;;;;5036397;28;20578;-89
2020/12/19 14:36:40;;;;;;;7.72;3.60;;;18.20;45.00;;;;;;5038280;28;20139;-89
2020/12/19 14:39:07;;;;;;;7.07;3.75;;;17.40;46.50;;;;;;5035617;28;20100;-89
2020/12/19 14:41:34;;;;;;;7.15;3.90;;;16.80;47.90;;;;;;5035207;28;20510;-89
2020/12/19 14:44:02;;;;;;;6.60;3.80;;;16.20;49.70;;;;;;5018675;28;20053;-89
2020/12/19 14:46:29;;;;;;;6.25;3.97;;;15.80;50.90;;;;;;5035402;28;20049;-89
2020/12/19 14:48:56;;;;;;;6.47;3.70;;;15.40;52.40;;;;;;5016149;28;20057;-88
2020/12/19 14:51:25;;;;;;;6.85;4.18;;;15.00;53.30;;;;;;5034425;28;20072;-89
2020/12/19 14:53:51;;;;;;;7.85;4.93;;;14.70;53.90;;;;;;5034543;28;20561;-88
2020/12/19 14:56:18;;;;;;;9.57;4.88;;;14.50;54.70;;;;;;5034381;28;20038;-88
2020/12/19 14:58:45;;;;;;;7.38;4.70;;;14.30;55.40;;;;;;5034408;28;20081;-88
2020/12/19 15:01:14;;;;;;;7.90;5.18;;;14.10;56.20;;;;;;5034123;28;20136;-88
2020/12/19 15:03:41;;;;;;;9.38;5.70;;;14.00;57.10;;;;;;5033934;28;20105;-88
2020/12/19 15:06:10;;;;;;;8.07;4.78;;;13.80;58.40;;;;;;5032898;28;20136;-88
2020/12/19 15:08:39;;;;;;;8.65;4.70;;;13.60;58.30;;;;;;5034173;28;20099;-89
2020/12/19 15:11:06;;;;;;;8.48;4.78;;;13.40;60.30;;;;;;5033785;28;20045;-88
2020/12/19 15:13:32;;;;;;;6.82;3.92;;;13.30;60.60;;;;;;5034085;28;20136;-88
2020/12/19 15:15:59;;;;;;;7.43;3.97;;;13.20;60.80;;;;;;5033841;28;20064;-89
2020/12/19 15:18:25;;;;;;;6.55;4.10;;;13.00;61.60;;;;;;5034525;28;20061;-88
2020/12/19 15:20:54;;;;;;;5.95;3.50;;;13.00;62.40;;;;;;5043432;28;20119;-89
2020/12/19 15:23:21;;;;;;;7.55;3.85;;;12.90;61.90;;;;;;5034441;28;20042;-90
2020/12/19 15:25:49;;;;;;;7.05;3.67;;;12.80;63.20;;;;;;5019655;28;20238;-90
2020/12/19 15:28:16;;;;;;;6.15;3.30;;;12.70;63.90;;;;;;5015273;28;20075;-87
2020/12/19 15:30:43;;;;;;;5.63;3.47;;;12.60;64.80;;;;;;5031552;28;20140;-87
2020/12/19 15:33:09;;;;;;;5.53;3.03;;;12.60;63.60;;;;;;5032451;28;20076;-87
2020/12/19 15:35:36;;;;;;;5.95;3.08;;;12.50;63.20;;;;;;5030448;28;20049;-88
2020/12/19 15:38:03;;;;;;;6.30;3.30;;;12.50;66.40;;;;;;5022057;28;20077;-88
2020/12/19 15:40:30;;;;;;;5.80;3.03;;;12.40;66.70;;;;;;5033190;28;20607;-88
2020/12/19 15:42:58;;;;;;;5.57;3.25;;;12.30;66.40;;;;;;5026568;28;20140;-87
2020/12/19 15:45:24;;;;;;;6.00;3.33;;;12.20;66.20;;;;;;5032617;28;20049;-88
2020/12/19 15:47:51;;;;;;;6.30;3.50;;;12.20;66.20;;;;;;5033583;28;20468;-89
2020/12/19 15:50:18;;;;;;;8.32;4.10;;;12.10;67.40;;;;;;5042257;28;20073;-90
2020/12/19 15:52:45;;;;;;;8.90;3.65;;;12.00;67.80;;;;;;5032709;28;20099;-88
2020/12/19 15:55:11;;;;;;;6.35;3.90;;;12.00;70.20;;;;;;5029384;28;20422;-88
2020/12/19 15:57:38;;;;;;;25.45;13.82;;;11.90;72.70;;;;;;5032083;28;20076;-88
2020/12/19 16:00:06;;;;;;;11.00;6.25;;;11.70;73.30;;;;;;5031454;28;20124;-88
2020/12/19 16:02:32;;;;;;;5.60;3.45;;;11.60;74.90;;;;;;5030083;28;20077;-89
2020/12/19 16:04:59;;;;;;;6.57;3.53;;;11.50;72.20;;;;;;5032955;28;20045;-88
2020/12/19 16:07:26;;;;;;;5.90;3.05;;;11.40;72.00;;;;;;5032008;28;20050;-89
2020/12/19 16:09:52;;;;;;;7.32;4.43;;;11.30;75.20;;;;;;5040847;28;20045;-87
2020/12/19 16:12:19;;;;;;;6.78;4.22;;;11.30;75.30;;;;;;5033974;28;20045;-87
2020/12/19 16:14:46;;;;;;;6.68;3.95;;;11.20;75.40;;;;;;5017247;28;20046;-89
2020/12/19 16:17:14;;;;;;;7.03;4.07;;;11.20;76.60;;;;;;5012854;28;20046;-89
2020/12/19 16:19:40;;;;;;;7.50;4.53;;;11.10;77.80;;;;;;5033226;28;20407;-90
2020/12/19 16:22:07;;;;;;;8.93;4.85;;;11.10;78.20;;;;;;5034248;28;20076;-90
2020/12/19 16:24:34;;;;;;;9.27;4.13;;;11.00;79.90;;;;;;5033727;28;20061;-88
2020/12/19 16:27:00;;;;;;;7.65;4.45;;;10.80;79.60;;;;;;5021378;28;20049;-87
2020/12/19 16:29:27;;;;;;;8.07;4.82;;;10.80;79.50;;;;;;5027902;28;20050;-87
2020/12/19 16:31:54;;;;;;;8.60;5.22;;;10.70;79.90;;;;;;5020969;28;20052;-89
2020/12/19 16:34:22;;;;;;;10.18;5.00;;;10.70;80.30;;;;;;5025550;28;20069;-90
2020/12/19 16:36:48;;;;;;;7.97;4.97;;;10.80;80.10;;;;;;5028676;28;20522;-89
2020/12/19 16:39:19;;;;;;;7.78;4.40;;;10.80;79.30;;;;;;5031087;28;20076;-88
2020/12/19 16:41:51;;;;;;;6.30;3.17;;;10.70;82.50;;;;;;5032912;28;20053;-88
2020/12/19 16:44:18;;;;;;;5.90;2.85;;;10.50;82.70;;;;;;5034659;28;20065;-88
2020/12/19 16:46:45;;;;;;;6.95;3.22;;;10.40;82.70;;;;;;5018301;28;20572;-88
2020/12/19 16:49:12;;;;;;;7.57;3.40;;;10.30;82.30;;;;;;5022736;28;20049;-87
2020/12/19 16:51:40;;;;;;;6.75;4.10;;;10.30;83.20;;;;;;5029805;28;20065;-87
2020/12/19 16:54:11;;;;;;;9.07;4.60;;;10.30;82.60;;;;;;5018037;28;20062;-86
2020/12/19 16:56:38;;;;;;;7.28;4.93;;;10.20;86.00;;;;;;5023129;28;20050;-86
2020/12/19 16:59:05;;;;;;;10.35;5.32;;;10.20;86.50;;;;;;5023917;28;20096;-87
2020/12/19 17:01:38;;;;;;;10.43;5.82;;;10.20;83.80;;;;;;5026083;28;20133;-87
2020/12/19 17:04:06;;;;;;;8.98;5.18;;;10.10;85.80;;;;;;5033515;28;20527;-87
2020/12/19 17:06:33;;;;;;;8.63;5.13;;;10.30;86.60;;;;;;5035943;28;20076;-87
2020/12/19 17:09:01;;;;;;;7.85;5.03;;;10.30;87.30;;;;;;5035415;28;20057;-87
2020/12/19 17:11:28;;;;;;;12.20;7.57;;;10.10;88.80;;;;;;5034980;28;20045;-87
2020/12/19 17:13:55;;;;;;;9.98;5.95;;;10.00;89.90;;;;;;5034512;28;20179;-87
2020/12/19 17:16:23;;;;;;;8.82;5.60;;;9.90;89.90;;;;;;5030931;28;20045;-87
2020/12/19 17:18:51;;;;;;;8.05;5.25;;;9.80;88.30;;;;;;5034718;28;20081;-87
2020/12/19 17:21:23;;;;;;;10.60;6.05;;;9.70;87.70;;;;;;5027777;28;20095;-87
2020/12/19 17:23:51;;;;;;;11.68;6.38;;;9.70;87.10;;;;;;5017850;28;20061;-87
2020/12/19 17:26:19;;;;;;;16.95;9.93;;;9.70;88.10;;;;;;5032844;28;20080;-88
2020/12/19 17:28:47;;;;;;;21.40;12.25;;;9.60;89.40;;;;;;5035527;28;20128;-88
2020/12/19 17:31:14;;;;;;;23.85;14.30;;;9.50;90.20;;;;;;5034861;28;20515;-86
2020/12/19 17:33:42;;;;;;;25.60;14.52;;;9.50;90.80;;;;;;5029329;28;20092;-86
2020/12/19 17:36:11;;;;;;;19.75;11.50;;;9.40;91.20;;;;;;5035847;28;20502;-89
2020/12/19 17:38:37;;;;;;;16.05;9.02;;;9.40;91.60;;;;;;5036839;28;20045;-88
2020/12/19 17:41:05;;;;;;;18.27;10.45;;;9.60;91.40;;;;;;5036788;28;20045;-90
2020/12/19 17:43:32;;;;;;;17.63;10.45;;;9.50;91.50;;;;;;5036888;28;20077;-87
2020/12/19 17:45:59;;;;;;;19.30;11.88;;;9.50;91.60;;;;;;5036304;28;20049;-90
2020/12/19 17:48:25;;;;;;;22.20;12.52;;;9.50;91.50;;;;;;5036160;28;20088;-88
2020/12/19 17:50:52;;;;;;;15.90;10.73;;;9.50;91.50;;;;;;5035722;28;20457;-87
2020/12/19 17:53:19;;;;;;;17.13;11.00;;;9.30;91.60;;;;;;5035455;28;20072;-88
2020/12/19 17:55:45;;;;;;;20.88;13.10;;;9.30;92.00;;;;;;5016538;28;20061;-88
2020/12/19 17:58:12;;;;;;;21.95;13.82;;;9.20;92.40;;;;;;5015479;28;20431;-88
2020/12/19 18:00:40;;;;;;;24.83;15.07;;;9.20;92.90;;;;;;5015885;28;20089;-90
2020/12/19 18:03:06;;;;;;;23.67;14.85;;;9.20;93.20;;;;;;5016289;28;20475;-89
2020/12/19 18:05:34;;;;;;;23.50;15.45;;;9.20;93.20;;;;;;4998121;28;20050;-88
2020/12/19 18:08:01;;;;;;;24.98;15.00;;;9.20;93.20;;;;;;5015820;28;20426;-87
2020/12/19 18:10:29;;;;;;;24.90;15.05;;;9.30;93.20;;;;;;5016008;28;20058;-88
2020/12/19 18:12:55;;;;;;;22.33;14.02;;;9.30;93.10;;;;;;5015324;28;20483;-88
2020/12/19 18:15:22;;;;;;;22.65;14.48;;;9.40;92.90;;;;;;5014453;28;20137;-88
2020/12/19 18:17:50;;;;;;;21.80;13.32;;;9.40;93.00;;;;;;5014905;28;20165;-86
2020/12/19 18:20:16;;;;;;;23.73;14.27;;;9.30;93.00;;;;;;5014995;28;20077;-87
2020/12/19 18:22:43;;;;;;;20.58;13.50;;;9.30;93.00;;;;;;5014476;28;20045;-87
2020/12/19 18:25:09;;;;;;;23.35;13.45;;;9.30;93.00;;;;;;5014993;28;20140;-87
2020/12/19 18:27:37;;;;;;;21.52;12.80;;;9.30;93.10;;;;;;5014845;28;20108;-86
2020/12/19 18:30:04;;;;;;;22.17;12.85;;;9.30;93.00;;;;;;5015288;28;20496;-86
2020/12/19 18:32:35;;;;;;;18.75;12.35;;;9.30;92.90;;;;;;5015089;28;20085;-86
2020/12/19 18:35:04;;;;;;;20.50;13.15;;;9.30;92.80;;;;;;5016296;28;20142;-86
2020/12/19 18:37:31;;;;;;;20.95;13.45;;;9.20;92.90;;;;;;5014642;28;20128;-86
2020/12/19 18:39:58;;;;;;;41.47;21.15;;;9.00;93.60;;;;;;5014691;28;20149;-86
2020/12/19 18:42:24;;;;;;;30.80;16.35;;;8.90;93.80;;;;;;5014304;28;20578;-87
2020/12/19 18:44:51;;;;;;;27.17;14.55;;;8.80;94.00;;;;;;5014354;28;20129;-88
2020/12/19 18:47:18;;;;;;;24.30;13.27;;;8.80;94.20;;;;;;5014677;28;20125;-87
2020/12/19 18:49:45;;;;;;;26.52;14.10;;;8.70;94.00;;;;;;5014854;28;20052;-88
2020/12/19 18:52:12;;;;;;;25.02;13.55;;;8.80;94.40;;;;;;5014182;28;20136;-87
2020/12/19 18:54:39;;;;;;;21.38;13.63;;;8.90;94.20;;;;;;5016357;28;20144;-90
2020/12/19 18:57:06;;;;;;;24.73;14.20;;;8.90;94.40;;;;;;5014333;28;20058;-87
2020/12/19 18:59:32;;;;;;;21.63;13.43;;;8.90;94.60;;;;;;5015101;28;20133;-88
2020/12/19 19:01:59;;;;;;;21.42;12.68;;;8.90;94.80;;;;;;5016442;28;20046;-92
2020/12/19 19:04:26;;;;;;;21.88;13.90;;;9.00;95.00;;;;;;5016721;28;20136;-90
2020/12/19 19:06:52;;;;;;;19.73;12.70;;;9.00;95.20;;;;;;5015378;28;20100;-91
2020/12/19 19:09:20;;;;;;;21.45;12.73;;;8.90;95.10;;;;;;5015619;28;20084;-91
2020/12/19 19:11:46;;;;;;;21.90;13.13;;;8.90;95.00;;;;;;5015780;28;20137;-90
2020/12/19 19:14:15;;;;;;;21.13;12.68;;;8.90;94.90;;;;;;5016152;28;20081;-90
2020/12/19 19:16:42;;;;;;;22.38;13.10;;;8.80;94.70;;;;;;5003780;28;20403;-91
2020/12/19 19:19:10;;;;;;;22.33;13.82;;;8.80;94.70;;;;;;4996619;28;20127;-92
2020/12/19 19:21:37;;;;;;;22.73;12.55;;;8.80;95.10;;;;;;5004164;28;20134;-90
2020/12/19 19:24:04;;;;;;;19.73;12.52;;;8.90;95.20;;;;;;5015634;28;20050;-91
2020/12/19 19:26:32;;;;;;;21.40;12.10;;;8.80;95.80;;;;;;5015900;28;20098;-91
2020/12/19 19:29:05;;;;;;;38.22;24.05;;;8.80;95.60;;;;;;5015572;28;20104;-91
2020/12/19 19:31:39;;;;;;;23.20;15.07;;;8.80;95.40;;;;;;5014385;28;20447;-90
2020/12/19 19:34:07;;;;;;;20.20;11.38;;;8.60;95.90;;;;;;5014768;28;20502;-91
2020/12/19 19:36:34;;;;;;;21.35;11.70;;;8.50;96.10;;;;;;5014460;28;20511;-91
2020/12/19 19:39:01;;;;;;;19.52;11.32;;;8.40;96.20;;;;;;5015075;28;20054;-91
2020/12/19 19:41:28;;;;;;;22.70;14.23;;;8.30;96.40;;;;;;5014776;28;20129;-91
2020/12/19 19:43:56;;;;;;;26.73;15.55;;;8.20;96.10;;;;;;5015412;28;20507;-91
2020/12/19 19:46:22;;;;;;;23.83;15.13;;;8.40;96.10;;;;;;5015470;28;20053;-91
2020/12/19 19:48:49;;;;;;;26.00;16.25;;;8.30;96.00;;;;;;5014987;28;20058;-91
2020/12/19 19:51:16;;;;;;;27.58;16.73;;;8.30;96.00;;;;;;5014823;28;20077;-90
2020/12/19 19:53:43;;;;;;;28.38;16.55;;;8.30;95.80;;;;;;5016457;28;20561;-90
2020/12/19 19:56:10;;;;;;;24.85;15.32;;;8.30;95.80;;;;;;5034993;28;20085;-90
2020/12/19 19:58:37;;;;;;;23.90;14.85;;;8.50;95.70;;;;;;5035249;28;20073;-90
2020/12/19 20:01:05;;;;;;;24.38;15.10;;;8.50;95.50;;;;;;5035022;28;20064;-91
2020/12/19 20:03:33;;;;;;;23.27;14.55;;;8.30;95.60;;;;;;5034395;28;20458;-91
2020/12/19 20:05:59;;;;;;;23.45;15.00;;;8.40;95.50;;;;;;5033992;28;20482;-89
2020/12/19 20:08:27;;;;;;;23.75;13.77;;;8.40;95.30;;;;;;5034540;28;20076;-91
2020/12/19 20:10:55;;;;;;;23.13;14.80;;;8.30;95.10;;;;;;5035024;28;20041;-90
2020/12/19 20:13:22;;;;;;;25.85;14.75;;;8.40;95.30;;;;;;5035048;28;20056;-90
2020/12/19 20:15:51;;;;;;;22.33;14.73;;;8.40;95.30;;;;;;5034273;28;20064;-90
2020/12/19 20:18:18;;;;;;;22.38;14.18;;;8.40;95.30;;;;;;5034574;28;20137;-91
2020/12/19 20:20:45;;;;;;;23.42;14.00;;;8.50;95.40;;;;;;5035447;28;20081;-90
2020/12/19 20:23:12;;;;;;;22.95;14.35;;;8.50;95.20;;;;;;5034966;28;20066;-90
2020/12/19 20:25:39;;;;;;;21.35;13.35;;;8.40;95.10;;;;;;5035996;28;20079;-89
2020/12/19 20:28:06;;;;;;;21.92;13.27;;;8.40;95.10;;;;;;5036595;28;20067;-89
2020/12/19 20:30:33;;;;;;;20.08;12.65;;;8.40;94.80;;;;;;5033268;28;20124;-85
2020/12/19 20:33:00;;;;;;;24.30;13.57;;;8.40;94.60;;;;;;5033948;28;20053;-87
2020/12/19 20:35:28;;;;;;;21.88;13.38;;;8.40;94.20;;;;;;5033722;28;20056;-87
2020/12/19 20:37:55;;;;;;;23.02;13.45;;;8.40;94.10;;;;;;5033424;28;20388;-87
2020/12/19 20:40:22;;;;;;;21.35;13.65;;;8.30;93.90;;;;;;5036549;28;20733;-86
2020/12/19 20:42:48;;;;;;;22.55;14.30;;;8.30;94.20;;;;;;5036214;28;20136;-88
2020/12/19 20:45:16;;;;;;;28.85;18.15;;;8.40;94.00;;;;;;5037070;28;20137;-89
2020/12/19 20:47:43;;;;;;;27.15;16.00;;;8.30;94.30;;;;;;5037958;28;20134;-87
2020/12/19 20:50:09;;;;;;;24.55;15.60;;;8.30;94.40;;;;;;5037509;28;20591;-90
2020/12/19 20:52:38;;;;;;;24.35;14.65;;;8.30;94.50;;;;;;5040941;28;20053;-89
2020/12/19 20:55:05;;;;;;;22.38;14.38;;;8.20;94.30;;;;;;5026466;28;20058;-95
2020/12/19 20:57:32;;;;;;;23.17;14.20;;;8.20;94.60;;;;;;5016713;28;20073;-87
2020/12/19 20:59:59;;;;;;;19.75;12.27;;;8.20;95.10;;;;;;5017644;28;20046;-87
2020/12/19 21:02:26;;;;;;;18.95;10.95;;;8.00;94.40;;;;;;5017277;28;20074;-88
2020/12/19 21:04:53;;;;;;;19.23;11.23;;;7.90;93.60;;;;;;5017039;28;20081;-88
2020/12/19 21:07:20;;;;;;;17.63;10.93;;;7.90;93.90;;;;;;5017384;28;20132;-87
2020/12/19 21:09:49;;;;;;;16.80;10.75;;;7.80;93.70;;;;;;5016695;28;20053;-87
2020/12/19 21:12:15;;;;;;;20.13;11.43;;;7.90;93.80;;;;;;5016279;28;20056;-87
2020/12/19 21:14:42;;;;;;;18.63;11.45;;;7.70;94.10;;;;;;5017070;28;20054;-87
2020/12/19 21:17:09;;;;;;;18.10;12.10;;;7.60;93.90;;;;;;5007125;28;20128;-87
2020/12/19 21:19:36;;;;;;;20.38;11.85;;;7.70;94.10;;;;;;5016703;28;20057;-87
2020/12/19 21:22:03;;;;;;;18.45;11.45;;;7.70;94.10;;;;;;5016502;28;20503;-88
2020/12/19 21:24:30;;;;;;;16.95;10.52;;;7.70;94.00;;;;;;5016930;28;20061;-88
2020/12/19 21:27:01;;;;;;;17.65;11.02;;;7.70;94.00;;;;;;5016371;28;20144;-88
2020/12/19 21:29:28;;;;;;;17.75;11.60;;;7.70;93.90;;;;;;5017009;28;20491;-89
2020/12/19 21:31:55;;;;;;;18.15;11.00;;;7.80;93.80;;;;;;5016895;28;20092;-88
2020/12/19 21:34:22;;;;;;;19.67;11.38;;;7.80;94.10;;;;;;5016493;28;20106;-88
2020/12/19 21:36:49;;;;;;;21.60;11.43;;;7.70;94.40;;;;;;5017016;28;20080;-88
2020/12/19 21:39:16;;;;;;;15.23;10.10;;;7.80;94.30;;;;;;5015868;28;20042;-87
2020/12/19 21:41:44;;;;;;;20.23;10.77;;;7.80;94.10;;;;;;5016435;28;20458;-88
2020/12/19 21:44:12;;;;;;;18.23;11.90;;;7.70;94.10;;;;;;5017917;28;20192;-89
2020/12/19 21:46:39;;;;;;;17.90;11.63;;;7.80;94.40;;;;;;5016673;28;20092;-89
2020/12/19 21:49:06;;;;;;;17.95;11.68;;;7.80;94.10;;;;;;5018376;28;20053;-88
2020/12/19 21:51:32;;;;;;;15.93;10.82;;;7.80;94.10;;;;;;5015686;28;20057;-87
2020/12/19 21:53:59;;;;;;;18.15;10.82;;;7.90;93.70;;;;;;5016189;28;20140;-88
2020/12/19 21:56:26;;;;;;;16.55;10.02;;;7.80;94.00;;;;;;5015744;28;20107;-87
2020/12/19 21:58:53;;;;;;;17.02;10.27;;;7.80;93.90;;;;;;5016116;28;20133;-87
2020/12/19 22:01:22;;;;;;;17.98;10.48;;;7.90;93.90;;;;;;5016017;28;20049;-88
2020/12/19 22:03:49;;;;;;;16.13;10.20;;;7.70;93.80;;;;;;5017002;28;20057;-87
2020/12/19 22:06:16;;;;;;;18.92;10.52;;;7.60;94.00;;;;;;5015902;28;20085;-88
2020/12/19 22:08:43;;;;;;;17.75;10.55;;;7.70;94.10;;;;;;5015882;28;20128;-87
2020/12/19 22:11:12;;;;;;;19.95;11.70;;;7.70;94.30;;;;;;5015673;28;20085;-87
2020/12/19 22:13:39;;;;;;;15.43;10.38;;;7.70;93.80;;;;;;5016328;28;20054;-88
2020/12/19 22:16:05;;;;;;;14.90;10.30;;;7.70;93.90;;;;;;5015694;28;20576;-88
2020/12/19 22:18:33;;;;;;;16.00;10.00;;;7.60;93.70;;;;;;5015446;28;20141;-88
2020/12/19 22:20:59;;;;;;;15.63;9.40;;;7.40;93.70;;;;;;5015329;28;20050;-88
2020/12/19 22:23:26;;;;;;;17.13;10.10;;;7.40;93.60;;;;;;5016574;28;20428;-88
2020/12/19 22:25:53;;;;;;;17.27;10.75;;;7.40;93.90;;;;;;5016149;28;20157;-88
2020/12/19 22:28:19;;;;;;;18.00;11.55;;;7.30;94.10;;;;;;5016243;28;20513;-89
2020/12/19 22:30:46;;;;;;;16.98;11.65;;;7.30;94.30;;;;;;5015585;28;20129;-89